Latest Weather Observations for Thredbo Top Station

IDN60901

Issued at 9:41 am EST Wednesday 15 July 2020 (issued every 10 minutes, with the page automatically refreshed every 10 minutes)

About weather observations | Map of Canberra area stations | Latest observations for Canberra area | Other Formats
Station Details ID: 071032 Name: THREDBO AWS Lat: -36.49 Lon: 148.29 Height: 1957.0 m
Data from the previous 72 hours. | See also: Recent months at Thredbo Top Station
Date/Time
EST
Temp
°C
App
Temp
°C
Dew
Point
°C
Rel
Hum
%
Delta-T
°C
Wind Press
QNH
hPa
Press
MSL
hPa
Rain since
9am
mm
Dir  Spd
km/h
Gust
km/h
Spd
kts
Gust
kts
15/09:30am -3.1 -5.5 -3.4 98 0.0 CALM 0 0 0 0 1021.2 1024.9 0.0
15/09:00am -3.4 -5.9 -3.7 98 -0.1 CALM 0 0 0 0 1021.2 1024.9 0.0
15/08:30am -3.6 -6.1 -3.9 98 -0.1 CALM 0 0 0 0 1021.2 1024.9 0.0
15/08:00am -3.7 -6.2 -4.0 98 -0.1 CALM 0 0 0 0 1021.1 1024.8 0.0
15/07:30am -3.7 -6.2 -4.0 98 -0.1 CALM 0 0 0 0 1021.1 1024.8 0.0
15/07:00am -3.6 -6.1 -3.9 98 -0.1 CALM 0 0 0 0 1021.2 1024.9 0.0
15/06:30am -3.3 -5.8 -3.6 98 0.0 CALM 0 0 0 0 1021.3 1025.1 0.0
15/06:00am -3.0 -5.4 -3.3 98 0.0 CALM 0 0 0 0 1020.7 1024.4 0.0
15/05:30am -2.8 -5.2 -3.1 98 0.0 CALM 0 0 0 0 1021.0 1024.7 0.0
15/05:00am -2.6 -5.0 -2.9 98 0.0 CALM 0 0 0 0 1020.7 1024.4 0.0
15/04:30am -2.3 -4.6 -2.6 98 0.0 CALM 0 0 0 0 1020.8 1024.6 0.0
15/04:00am -2.1 -4.4 -2.4 98 0.0 CALM 0 0 0 0 1021.1 1024.8 0.0
15/03:30am -2.0 -4.3 -2.3 98 0.0 CALM 0 0 0 0 1021.2 1024.9 0.0
15/03:00am -1.9 -4.2 -2.2 98 0.0 CALM 0 0 0 0 1021.6 1025.3 0.0
15/02:30am -1.8 -4.1 -2.1 98 0.0 CALM 0 0 0 0 1021.8 1025.6 0.0
15/02:00am -1.8 -4.1 -2.1 98 0.0 CALM 0 0 0 0 1021.9 1025.7 0.0
15/01:30am -1.8 -4.1 -2.1 98 0.0 CALM 0 0 0 0 1021.9 1025.7 0.0
15/01:00am -1.8 -4.1 -2.1 98 0.0 CALM 0 0 0 0 1022.0 1025.8 0.0
15/12:30am -1.8 -4.1 -2.1 98 0.0 CALM 0 0 0 0 1022.3 1026.1 0.0
15/12:00am -1.8 -4.1 -2.1 98 0.0 CALM 0 0 0 0 1022.8 1026.6 0.0
 
Date/Time
EST
Temp
°C
App
Temp
°C
Dew
Point
°C
Rel
Hum
%
Delta-T
°C
Wind Press
QNH
hPa
Press
MSL
hPa
Rain since
9am
mm
Dir  Spd
km/h
Gust
km/h
Spd
kts
Gust
kts
14/11:30pm -1.7 -4.0 -2.0 98 0.0 CALM 0 0 0 0 1023.0 1026.8 0.0
14/11:00pm -1.7 -4.0 -2.0 98 0.0 CALM 0 0 0 0 1023.1 1027.0 0.0
14/10:30pm -1.6 -3.8 -1.9 98 0.0 CALM 0 0 0 0 1023.5 1027.4 0.0
14/10:00pm -1.5 -3.7 -1.8 98 0.0 CALM 0 0 0 0 1023.5 1027.4 0.0
14/09:30pm -1.4 -3.6 -1.7 98 0.0 CALM 0 0 0 0 1023.4 1027.2 0.0
14/09:00pm -1.4 -3.6 -1.7 98 0.0 CALM 0 0 0 0 1023.5 1027.4 0.0
14/08:30pm -1.4 -3.6 -1.7 98 0.0 CALM 0 0 0 0 1023.7 1027.6 0.0
14/08:00pm -1.3 -3.5 -1.6 98 0.0 CALM 0 0 0 0 1023.6 1027.5 0.0
14/07:30pm -1.3 -3.5 -1.6 98 0.0 CALM 0 0 0 0 1023.7 1027.6 0.0
14/07:00pm -1.2 -3.4 -1.5 98 0.1 CALM 0 0 0 0 1023.7 1027.6 0.0
14/06:30pm -1.2 -3.4 -1.5 98 0.1 CALM 0 0 0 0 1023.6 1027.5 0.0
14/06:00pm -1.2 -3.4 -1.5 98 0.1 CALM 0 0 0 0 1023.5 1027.4 0.0
14/05:30pm -1.1 -3.3 -1.4 98 0.1 CALM 0 0 0 0 1023.0 1026.8 0.0
14/05:00pm -1.0 -3.2 -1.3 98 0.1 CALM 0 0 0 0 1023.1 1027.0 0.0
14/04:30pm -0.9 -3.1 -1.2 98 0.1 CALM 0 0 0 0 1022.9 1026.7 0.0
14/04:00pm -0.8 -2.9 -1.1 98 0.1 CALM 0 0 0 0 1022.9 1026.7 0.0
14/03:30pm -0.8 -2.9 -1.1 98 0.1 CALM 0 0 0 0 1022.9 1026.7 0.0
14/03:00pm -0.7 -2.8 -1.0 98 0.1 CALM 0 0 0 0 1022.9 1026.7 0.0
14/02:30pm -0.7 -2.8 -1.0 98 0.1 CALM 0 0 0 0 1022.8 1026.6 0.0
14/02:00pm -0.6 -2.7 -0.9 98 0.1 CALM 0 0 0 0 1022.7 1026.5 0.0
14/01:30pm -0.7 -2.8 -1.0 98 0.1 CALM 0 0 0 0 1022.3 1026.1 0.0
14/01:00pm -0.8 -2.9 -1.1 98 0.1 CALM 0 0 0 0 1022.4 1026.2 0.0
14/12:30pm -0.9 -3.1 -1.2 98 0.1 CALM 0 0 0 0 1022.7 1026.5 0.0
14/12:00pm -1.0 -7.7 -1.3 98 0.1 SE 24 41 13 22 1023.0 1026.8 0.0
14/11:30am -1.2 -8.3 -1.5 98 0.1 SE 26 41 14 22 1023.0 1026.8 0.0
14/11:00am -1.5 -9.1 -1.8 98 0.0 SE 28 41 15 22 1023.5 1027.4 0.0
14/10:30am -1.7 -8.5 -2.0 98 0.0 SE 24 43 13 23 1023.7 1027.6 0.0
14/10:14am -1.9 -6.7 -2.2 98 0.0 SE 13 54 7 29 1024.0 1027.9 0.0
14/10:13am -1.9 -6.3 -2.2 98 0.0 SE 11 54 6 29 1024.0 1027.9 0.0
14/10:00am -2.0 -5.1 -2.3 98 0.0 SE 4 4 2 2 1024.2 1028.1 0.0
14/09:30am -2.1 -5.2 -2.4 98 0.0 SE 4 4 2 2 1024.2 1028.1 0.0
14/09:00am -2.1 -4.8 -2.4 98 0.0 SE 2 4 1 2 1024.0 1027.9 31.8
14/08:30am -1.9 -4.6 -2.2 98 0.0 SE 2 4 1 2 1023.7 1027.6 31.8
14/08:00am -1.7 -4.3 -2.0 98 0.0 SE 2 4 1 2 1023.7 1027.6 31.8
14/07:30am -1.5 -4.1 -1.8 98 0.0 SE 2 4 1 2 1023.1 1027.0 31.8
14/07:00am -1.3 -3.9 -1.6 98 0.0 SE 2 4 1 2 1023.0 1026.8 31.6
14/06:30am -1.0 -3.5 -1.3 98 0.1 SE 2 4 1 2 1022.9 1026.7 31.6
14/06:00am -0.7 -3.2 -1.0 98 0.1 SE 2 6 1 3 1022.2 1026.0 31.6
14/05:30am -0.5 -3.0 -0.8 98 0.1 SE 2 6 1 3 1021.7 1025.4 31.6
14/05:00am -0.3 -2.7 -0.6 98 0.1 SE 2 6 1 3 1021.6 1025.3 31.6
14/04:30am -0.3 -2.7 -0.6 98 0.1 SE 2 4 1 2 1021.7 1025.4 31.4
14/04:00am -0.3 -2.7 -0.6 98 0.1 SE 2 4 1 2 1021.8 1025.6 31.4
14/03:30am -0.3 -3.1 -0.6 98 0.1 SE 4 6 2 3 1021.6 1025.3 31.2
14/03:00am -0.4 -2.9 -0.7 98 0.1 SE 2 4 1 2 1021.7 1025.4 30.8
14/02:30am -0.4 -2.9 -0.7 98 0.1 SE 2 4 1 2 1021.2 1024.9 30.6
14/02:00am -0.4 -3.2 -0.7 98 0.1 SE 4 6 2 3 1021.1 1024.8 30.6
14/01:30am -0.5 -3.4 -0.8 98 0.1 SE 4 6 2 3 1021.4 1025.2 30.2
14/01:00am -0.5 -3.4 -0.8 98 0.1 SE 4 6 2 3 1021.3 1025.1 30.0
14/12:30am -0.4 -3.2 -0.7 98 0.1 SE 4 6 2 3 1021.1 1024.8 29.6
14/12:00am -0.5 -3.7 -0.8 98 0.1 SSE 6 9 3 5 1021.0 1024.7 29.4
 
Date/Time
EST
Temp
°C
App
Temp
°C
Dew
Point
°C
Rel
Hum
%
Delta-T
°C
Wind Press
QNH
hPa
Press
MSL
hPa
Rain since
9am
mm
Dir  Spd
km/h
Gust
km/h
Spd
kts
Gust
kts
13/11:30pm -0.6 -4.0 -0.9 98 0.1 SSE 7 13 4 7 1021.0 1024.7 29.2
13/11:00pm -0.8 -4.6 -1.1 98 0.1 SSE 9 17 5 9 1021.1 1024.8 29.0
13/10:30pm -1.1 -5.4 -1.4 98 0.1 SSE 11 20 6 11 1021.1 1024.8 28.4
13/10:00pm -1.3 -5.6 -1.6 98 0.0 SE 11 19 6 10 1021.3 1025.1 28.2
13/09:30pm -1.6 -7.5 -1.9 98 0.0 SE 19 33 10 18 1021.4 1025.2 27.8
13/09:00pm -1.9 -8.4 -2.2 98 0.0 SSE 22 43 12 23 1021.1 1024.8 27.8
13/08:30pm -2.0 -7.9 -2.3 98 0.0 SE 19 30 10 16 1021.2 1024.9 27.6
13/08:00pm -2.1 -7.6 -2.4 98 0.0 SE 17 32 9 17 1021.0 1024.7 27.6
13/07:30pm -2.1 -6.5 -2.4 98 0.0 SE 11 20 6 11 1021.0 1024.7 27.4
13/07:00pm -2.1 -7.6 -2.4 98 0.0 SE 17 28 9 15 1020.8 1024.6 27.2
13/06:30pm -2.1 -6.9 -2.4 98 0.0 ESE 13 20 7 11 1020.6 1024.3 26.6
13/06:00pm -2.0 -7.1 -2.3 98 0.0 ESE 15 24 8 13 1020.6 1024.3 25.6
13/05:30pm -2.0 -7.9 -2.3 98 0.0 SSE 19 32 10 17 1020.1 1023.8 24.2
13/05:00pm -1.9 -7.4 -2.2 98 0.0 SE 17 32 9 17 1020.0 1023.7 22.2
13/04:30pm -1.8 -6.2 -2.1 98 0.0 ESE 11 17 6 9 1019.9 1023.5 20.4
13/04:00pm -1.7 -6.0 -2.0 98 0.0 SE 11 19 6 10 1019.5 1023.2 19.0
13/03:30pm -1.7 -6.4 -2.0 98 0.0 SE 13 24 7 13 1019.4 1023.0 16.2
13/03:00pm -1.7 -7.2 -2.0 98 0.0 SSE 17 24 9 13 1019.0 1022.6 15.2
13/02:30pm -1.8 -7.3 -2.1 98 0.0 SE 17 30 9 16 1018.9 1022.5 15.2
13/02:00pm -2.0 -9.2 -2.3 98 0.0 SSE 26 37 14 20 1018.3 1021.9 15.2
13/01:30pm -2.1 -8.0 -2.4 98 0.0 SSE 19 33 10 18 1018.3 1021.9 12.8
13/01:00pm -2.1 -8.0 -2.4 98 0.0 SE 19 35 10 19 1018.5 1022.1 11.0
13/12:30pm -2.2 -7.8 -2.5 98 0.0 SSE 17 28 9 15 1018.9 1022.5 9.4
13/12:00pm -2.2 -8.1 -2.5 98 0.0 SSE 19 30 10 16 1018.9 1022.5 7.8
13/11:30am -2.2 -8.1 -2.5 98 0.0 SSE 19 35 10 19 1019.4 1023.0 5.2
13/11:00am -2.3 -8.8 -2.6 98 0.0 SSE 22 32 12 17 1019.3 1022.9 3.4
13/10:30am -2.4 -9.3 -2.7 98 0.0 SSE 24 44 13 24 1019.1 1022.8 2.6
13/10:00am -2.4 -9.7 -2.7 98 0.0 SSE 26 41 14 22 1019.3 1022.9 1.8
13/09:30am -2.5 -8.7 -2.8 98 0.0 SSE 20 41 11 22 1018.9 1022.5 0.8
13/09:00am -2.5 -9.8 -2.8 98 0.0 SSE 26 43 14 23 1018.7 1022.3 28.8
13/08:30am -2.4 -9.3 -2.7 98 0.0 SSE 24 39 13 21 1018.5 1022.1 28.4
13/08:00am -2.3 -9.6 -2.6 98 0.0 SSE 26 37 14 20 1018.3 1021.9 28.2
13/07:39am -2.4 -10.1 -2.7 98 0.0 SSE 28 48 15 26 1018.0 1021.6 28.0
13/07:30am -2.4 -10.1 -2.7 98 0.0 SSE 28 43 15 23 1017.9 1021.5 27.8
13/07:00am -2.7 -8.9 -3.0 98 0.0 SSE 20 35 11 19 1017.6 1021.1 27.0
13/06:30am -2.5 -8.7 -2.8 98 0.0 SSE 20 33 11 18 1017.4 1021.0 26.6
13/06:00am -2.6 -8.8 -2.9 98 0.0 SSE 20 33 11 18 1017.3 1020.9 26.0
13/05:30am -2.4 -8.0 -2.7 98 0.0 SE 17 32 9 17 1017.2 1020.7 25.4
13/05:00am -2.2 -8.1 -2.5 98 0.0 SSE 19 32 10 17 1016.7 1020.2 25.2
13/04:30am -2.2 -7.4 -2.5 98 0.0 SE 15 28 8 15 1017.0 1020.5 25.2
13/04:00am -2.3 -7.9 -2.6 98 0.0 SE 17 33 9 18 1016.8 1020.4 24.8
13/03:30am -2.4 -8.0 -2.7 98 0.0 SE 17 26 9 14 1016.8 1020.4 24.2
13/03:00am -2.5 -8.1 -2.8 98 0.0 ESE 17 30 9 16 1016.8 1020.4 23.4
13/02:30am -2.6 -8.2 -2.9 98 0.0 ESE 17 28 9 15 1017.0 1020.5 22.6
13/02:00am -2.3 -7.1 -2.6 98 0.0 SE 13 30 7 16 1016.8 1020.4 21.6
13/01:30am -2.6 -7.8 -2.9 98 0.0 SE 15 26 8 14 1017.0 1020.5 20.0
13/01:00am -2.5 -7.7 -2.8 98 0.0 SE 15 30 8 16 1017.0 1020.5 19.0
13/12:30am -2.4 -8.4 -2.7 98 0.0 SSE 19 26 10 14 1016.7 1020.2 18.4
13/12:00am -2.4 -7.6 -2.7 98 0.0 SE 15 26 8 14 1017.0 1020.5 17.8
 
Date/Time
EST
Temp
°C
App
Temp
°C
Dew
Point
°C
Rel
Hum
%
Delta-T
°C
Wind Press
QNH
hPa
Press
MSL
hPa
Rain since
9am
mm
Dir  Spd
km/h
Gust
km/h
Spd
kts
Gust
kts
12/11:30pm -2.2 -7.0 -2.5 98 0.0 SE 13 22 7 12 1017.1 1020.6 16.8
12/11:00pm -2.1 -6.9 -2.4 98 0.0 SE 13 22 7 12 1017.2 1020.7 15.6
12/10:30pm -1.8 -6.5 -2.1 98 0.0 SE 13 20 7 11 1017.6 1021.1 14.4
12/10:00pm -1.5 -6.2 -1.8 98 0.0 SE 13 26 7 14 1017.4 1021.0 13.4
12/09:30pm -1.2 -6.6 -1.5 98 0.1 SSE 17 28 9 15 1017.2 1020.7 12.8
12/09:00pm -1.2 -5.9 -1.5 98 0.1 SSE 13 22 7 12 1017.4 1021.0 12.2
12/08:30pm -1.0 -5.6 -1.3 98 0.1 ESE 13 22 7 12 1017.4 1021.0 11.0
12/08:00pm -1.1 -5.4 -1.4 98 0.1 SE 11 19 6 10 1017.6 1021.1 11.0
12/07:30pm -1.2 -6.2 -1.5 98 0.1 ESE 15 24 8 13 1017.2 1020.7 11.0
12/07:00pm -1.5 -6.2 -1.8 98 0.0 E 13 19 7 10 1017.0 1020.5 10.6
12/06:30pm -1.5 -6.2 -1.8 98 0.0 E 13 17 7 9 1016.8 1020.4 9.8
12/06:00pm -1.5 -5.8 -1.8 98 0.0 ESE 11 17 6 9 1016.5 1020.0 9.0
12/05:30pm -1.4 -5.3 -1.7 98 0.0 ESE 9 17 5 9 1016.2 1019.7 8.0
12/05:00pm -1.7 -5.7 -2.0 98 0.0 SE 9 19 5 10 1016.0 1019.5 6.8
12/04:30pm -1.6 -5.9 -1.9 98 0.0 ESE 11 19 6 10 1015.9 1019.3 5.8
12/04:00pm -1.3 -6.0 -1.6 98 0.0 ESE 13 22 7 12 1015.5 1019.0 5.0
12/03:30pm -1.0 -5.6 -1.3 98 0.1 ESE 13 22 7 12 1015.4 1018.8 4.6
12/03:00pm -1.1 -5.7 -1.4 98 0.1 ESE 13 19 7 10 1015.1 1018.6 4.4
12/02:30pm -1.4 -5.7 -1.7 98 0.0 ESE 11 17 6 9 1015.1 1018.6 4.0
12/02:00pm -1.2 -5.1 -1.5 98 0.1 E 9 15 5 8 1015.0 1018.4 3.8
12/01:30pm -1.0 -5.6 -1.3 98 0.1 ESE 13 22 7 12 1015.1 1018.6 2.4
12/01:00pm -0.7 -4.2 -1.0 98 0.1 SE 7 11 4 6 1015.1 1018.6 1.2
12/12:30pm -0.8 -5.0 -1.1 98 0.1 E 11 17 6 9 1015.3 1018.7 1.0
12/12:00pm -0.9 -5.5 -1.2 98 0.1 E 13 20 7 11 1015.6 1019.1 1.0
12/11:30am -0.9 -5.9 -1.2 98 0.1 ENE 15 22 8 12 1016.0 1019.5 1.0
12/11:00am -1.1 -6.1 -1.4 98 0.1 ENE 15 20 8 11 1016.1 1019.6 0.6
12/10:30am -1.4 -6.5 -1.7 98 0.0 ENE 15 22 8 12 1016.2 1019.7 0.4
12/10:00am -1.6 -6.3 -1.9 98 0.0 ENE 13 20 7 11 1016.0 1019.5 0.4

Latest Capital City Observations: Canberra | Sydney | Melbourne | Brisbane | Adelaide | Perth | Hobart | Darwin

Other formats

Comma delimited format used in spreadsheet applications
http://www.bom.gov.au/fwo/IDN60903/IDN60903.95909.axf

JavaScript Object Notation format (JSON) in row-major order
http://www.bom.gov.au/fwo/IDN60903/IDN60903.95909.json

Data quality

Most of these data are generated automatically and are frequently updated. Quality checks on data are not normally performed. It is possible for incorrect values to appear. Refer to information at About Latest Weather Observations and please check the disclaimer before using these data.